Decoded Metar for LFBL (LIMOGES in FRANCE) (IATA:LIG) | Meteo·Mobile Aviation Weather
aviador You're here:

LFBL Decoded Metar

LIMOGES in FRANCE
Report Time2018-10-18 16:30:00
UTC Time2018-10-18 16:46:30
Flight Rules vfr VFR
Wind020° at 07 kt
W.Decomp.*RWY 03: 6.9 kt HW 1.1 kt LCW
W.Rank020° ranks 9
Current wind is above 020° avg. (6.1)
Visibility9999 m
Phenomena:N/A
Clouds:N/A
Expected CloudBase > 4,000 ft AGL from Temp-Dew spread
CeilingNone
Temp19°C (ISA +7)
Dew Point09°C (52% RH)
AAT16.2°C
QNH1016 hPa
Density Alt2,152 ft
Elevation1,319 ft
Report Wrong Elevation
Raw Report
METAR LFBL 181630Z AUTO 02007KT 350V050 CAVOK 19/09 Q1016 NOSIG=

Extra information for LFBL:More info

Metar Taf Metar & Taf Last 4 Metars F.Rules Stats Wind Profile Meteogram Temp Stats Airport Information Weather charts Add Link Nearby VenuesMetar ALERT Operation Metar Decoded Social comments